Aeroporto :
LOGIN :

Iscrizione | Disclaimer

   EN    FR    IT 

 










Sommario :    VFR   VFR Marginale   IFR   IFR Intensivo   IFR Molto Intensivo
Visibilità : 
Base nubi : 
>= 8 km
>= 3000ft
5 / 8 km
1000 / 3000 ft
1500m / 5 km
500 / 1000 ft
800 / 1500m
200 / 500 ft
< 800m
< 200 ft
Simboli :   Temporali  Nebbia  Neve Forte  Precipitazioni Forti  Vento > 20 kt
SIGMETs :   Varie  Temporali  Ghiacco  Turbolenza  Onda orograficha  Ceneri Vulcaniche






- Altitudine del aeroporto : 1 ft


EGCK - Caernarfon

ULTIMO METAR :
  • 240620Z AUTO 22024G36KT 5000 -RA OVC008/// 10/09 Q1003 RERA

METARs OBSOLETI :
  • 240550Z AUTO 21026G36KT 3700 RA FEW002/// OVC009/// 10/09 Q1003 RERA
  • 240520Z AUTO 21028G42KT 1700 +RA BKN002/// OVC012/// 10/09 Q1004
  • 240450Z AUTO 18023G34KT 170V230 2600 +RA SCT002/// OVC011/// 09/08 Q1005
  • 240420Z AUTO 17024G35KT 3600 RA FEW002/// SCT017/// OVC025/// 08/07 Q1006 RERA
  • 240350Z AUTO 18024KT 1900 +RA BKN002/// OVC019/// 08/07 Q1007

TAF TAF EGCK
Valido dal 24 a 06 ore il 24 a 15 ore UTC


240500Z 2406/2415 19023G35KT 6000 RA BKN005
BECMG 2406/2409 23023G35KT 9999 NSW
TEMPO 2406/2414 23025G45KT
TEMPO 2406/2408 2000 +RA BKN002
TEMPO 2408/2412 3000 RADZ BKN004
BECMG 2410/2412 SCT040



MetMap, La meteo Aeronautica in un colpo d'occhio ! - Copyright ORBIFLY Dicembre 2007 - Disclaimer

ORBIFLY MET'MAP TEAM :

Programmazione e sviluppo : Alexandra Zaïnal
Concezione : Baudouin d'Aumeries
Aiuto per la programmazione : Marc-Olivier Méhu
Supporto tecnico e logistico : Manuel Goepfert
Aiuto per la traduzione : Arnaldo La Scala

Contatto : metmap@orbifly.com




FONTI E CREDITI :

   NOAA